Airfield :
LOGIN :

Register | Disclaimer

   EN    FR    IT 

 










Legend :    VFR   Marginal VFR   IFR   Intensive IFR   Very Intensive IFR
Visi :
Ceiling :
>= 8 km
>= 3000ft
5 to 8 km
1000 to 3000 ft
1500m to 5 km
500 to 1000 ft
800 to 1500m
200 to 500 ft
< 800m
< 200 ft
Symbols :   Thunderstorms  Fog  Heavy snow  Heavy precipitations  Wind > 20 kt
SIGMETs :     Misc.  Thunderstorms  Icing  Turbulence  Mountain Waves  Volcanic Ashes







- Airport Elevation : 458 ft
- Download approach charts


LFSI - St-Dizier

CURRENT METAR :
  • 280330Z AUTO 20011KT 9999 DZ OVC009/// ///CB 18/16 Q1000

EXPIRED METARs :
  • 280300Z AUTO 20011KT 9999 -RA OVC009/// ///CB 18/17 Q1000
  • 280230Z AUTO 20009KT 9999 -RA BKN010/// BKN022/// BKN032/// ///TCU 18/17 Q1000
  • 280200Z AUTO 17007KT 9999 -RA BKN012/// OVC024/// ///CB 18/17 Q1000
  • 280130Z AUTO 15004KT 120V180 9999 SCT024 BKN030 OVC070 18/16 Q1000
  • 280100Z AUTO VRB03KT 9999 BKN025 BKN032 BKN062 18/17 Q1001

TAF TAF LFSI
Valid from the 27 at 21:00 until the 28 at 21:00 UTC


272000Z 2721/2821 28008KT 9999 SCT040
TEMPO 2721/2808 3000 SHRA BKN040TCU
PROB40
TEMPO 2721/2808 2000 TSRA BKN040CB
No reported NOTAMs for that airfield.



MET'MAP, your aeronautical weather chart ! - Copyright ORBIFLY December 2007 - Disclaimer

ORBIFLY MET'MAP TEAM :

Programming & Development : Alexandra Zaïnal
Concept & Development : Baudouin d'Aumeries
Co-Development & Prog : Marc-Olivier Méhu
Technical & hardware support : Manuel Goepfert

Contact : metmap@orbifly.com




SOURCES & CREDITS :

   NOAA